• Join FlightAware (Why Join?)
  • Login
  • US Flag 
02:44AM EDT


 

Airport Tracker/Info


-or-


 

Live Flight TrackerFlight Track Log ✈ EMD21 ✈ 16-Jun-2013 ✈ KDAL - KMLC

Flight Track Log - Related Links

Times and Time Zones

All times are in EDT time to prevent confusion due to time zone crossing. See the EMD21 flight status page for this flight to view local times or setup timezone preferences in your user account.

Time Position Orientation Groundspeed Altitude Reporting Facility
EDT Latitude Longitude Course Direction KTS MPH feet Rate Location/Type
11:48PM 32.8500 -96.8167 23° Northeast 117 135 1,200  Level Dallas / Fort Worth TRACON
11:49PM 32.8833 -96.8000 23° Northeast 163 188 2,500 1,260 Climbing Dallas / Fort Worth TRACON
11:50PM 32.9333 -96.7667 29° Northeast 170 196 3,900 1,200 Climbing Dallas / Fort Worth TRACON
11:51PM 32.9667 -96.7667 360° North 181 208 5,000 1,080 Climbing Dallas / Fort Worth TRACON
11:52PM 33.0333 -96.7667 360° North 189 217 6,100 1,080 Climbing Dallas / Fort Worth TRACON
11:53PM 33.0833 -96.7833 344° North 175 201 7,200 840 Climbing Dallas / Fort Worth TRACON
11:55PM 33.1575 -96.7981 351° North 208 239 8,300 660 Climbing Fort Worth Center
11:56PM 33.2097 -96.8100 349° North 195 224 9,000 300 Climbing Fort Worth Center
11:57PM 33.2683 -96.8222 350° North 200 230 9,000  Level Fort Worth Center
11:58PM 33.3331 -96.8342 351° North 223 257 9,000  Level Fort Worth Center
11:59PM 33.3958 -96.8461 351° North 229 264 9,000  Level Fort Worth Center
12:00AM 33.4606 -96.8556 353° North 229 264 9,000  Level Fort Worth Center
12:01AM 33.5125 -96.8131 34° Northeast 222 255 9,000  Level Fort Worth Center
12:02AM 33.5750 -96.7903 17° North 227 261 9,000  Level Fort Worth Center
12:03AM 33.6375 -96.7797 North 227 261 9,000  Level Fort Worth Center
12:04AM 33.7022 -96.7619 13° North 227 261 9,000  Level Fort Worth Center
12:05AM 33.7647 -96.7489 10° North 227 261 9,000  Level Fort Worth Center
12:06AM 33.8250 -96.7358 10° North 222 255 9,000  Level Fort Worth Center
12:07AM 33.8814 -96.7231 11° North 222 255 9,000  Level Fort Worth Center
12:08AM 33.9419 -96.7100 10° North 222 255 9,000  Level Fort Worth Center
12:09AM 34.0064 -96.6944 11° North 222 255 9,000  Level Fort Worth Center
12:10AM 34.0711 -96.6814 North 222 255 9,000  Level Fort Worth Center
12:11AM 34.1397 -96.6683 North 222 255 9,000  Level Fort Worth Center
12:12AM 34.2022 -96.6528 12° North 222 255 9,000 -120 Level Fort Worth Center
12:13AM 34.2650 -96.6419 North 222 255 8,800 -300 Descending Fort Worth Center
12:14AM 34.3317 -96.6239 13° North 222 255 8,400 -420 Descending Fort Worth Center
12:15AM 34.3961 -96.6131 North 227 261 8,000 -600 Descending Fort Worth Center
12:16AM 34.4628 -96.5950 13° North 232 267 7,200 -540 Descending Fort Worth Center
12:17AM 34.5294 -96.5792 11° North 238 274 7,000 -120 Descending Fort Worth Center
12:18AM 34.5942 -96.5658 10° North 238 274 7,000  Level Fort Worth Center
12:19AM 34.6564 -96.5475 14° North 238 274 7,000  Level Fort Worth Center
12:20AM 34.7189 -96.5344 10° North 238 274 7,000 -120 Level Fort Worth Center
12:21AM 34.7561 -96.4708 55° Northeast 217 250 6,800 -420 Descending Fort Worth Center
12:22AM 34.7617 -96.3900 85° East 219 252 6,200 -720 Descending Fort Worth Center
12:23AM 34.7842 -96.3139 70° East 230 265 5,400 -780 Descending Fort Worth Center
12:24AM 34.7936 -96.2328 82° East 230 265 4,700 -600 Descending Fort Worth Center
12:25AM 34.8139 -96.1592 71° East 235 270 4,200 -540 Descending Fort Worth Center